createdAt,value
2023-02-07T00:00:35.007Z,16.54
2023-02-07T00:01:48.845Z,16.56
2023-02-07T00:02:51.710Z,16.53
2023-02-07T00:04:05.288Z,16.56
2023-02-07T00:05:18.177Z,16.54
2023-02-07T00:06:21.765Z,16.5
2023-02-07T00:07:34.519Z,16.52
2023-02-07T00:08:47.798Z,16.54
2023-02-07T00:09:50.572Z,16.52
2023-02-07T00:11:04.293Z,16.5
2023-02-07T00:12:17.016Z,16.52
2023-02-07T00:13:20.801Z,16.5
2023-02-07T00:14:33.542Z,16.5
2023-02-07T00:15:47.263Z,16.52
2023-02-07T00:16:50.087Z,16.5
2023-02-07T00:18:03.787Z,16.52
2023-02-07T00:19:16.592Z,16.49
2023-02-07T00:20:30.300Z,16.49
2023-02-07T00:21:33.111Z,16.49
2023-02-07T00:22:46.764Z,16.47
2023-02-07T00:23:59.567Z,16.47
2023-02-07T00:25:03.274Z,16.49
2023-02-07T00:26:16.048Z,16.47
2023-02-07T00:27:29.768Z,16.47
2023-02-07T00:28:32.740Z,16.47
2023-02-07T00:29:46.284Z,16.46
2023-02-07T00:30:59.257Z,16.45
2023-02-07T00:32:02.796Z,16.45
2023-02-07T00:33:15.926Z,16.46
2023-02-07T00:34:29.254Z,16.43
2023-02-07T00:35:32.045Z,16.45
2023-02-07T00:36:45.906Z,16.45
2023-02-07T00:37:58.633Z,16.45
2023-02-07T00:39:12.345Z,16.43
2023-02-07T00:40:15.145Z,16.43
2023-02-07T00:41:29.564Z,16.43
2023-02-07T00:42:32.455Z,16.45
2023-02-07T00:43:45.786Z,16.43
2023-02-07T00:44:58.538Z,16.45
2023-02-07T00:46:02.627Z,16.42
2023-02-07T00:47:15.536Z,16.43
2023-02-07T00:48:28.930Z,16.42
2023-02-07T00:49:31.874Z,16.42
2023-02-07T00:50:45.808Z,16.42
2023-02-07T00:51:58.560Z,16.42
2023-02-07T00:53:12.282Z,16.4
2023-02-07T00:54:15.103Z,16.39
2023-02-07T00:55:29.051Z,16.4
2023-02-07T00:56:41.804Z,16.4
2023-02-07T00:57:45.294Z,16.37
2023-02-07T00:58:58.044Z,16.39
2023-02-07T01:00:11.768Z,16.4
2023-02-07T01:01:14.632Z,16.36
2023-02-07T01:02:28.289Z,16.36
2023-02-07T01:04:58.421Z,16.33
2023-02-07T01:06:01.480Z,16.35
2023-02-07T01:07:04.988Z,16.37
2023-02-07T01:08:17.744Z,16.36
2023-02-07T01:09:31.499Z,16.36
2023-02-07T01:10:34.306Z,16.36
2023-02-07T01:11:48.042Z,16.35
2023-02-07T01:13:00.821Z,16.33
2023-02-07T01:14:04.513Z,16.33
2023-02-07T01:15:17.314Z,16.35
2023-02-07T01:16:30.998Z,16.32
2023-02-07T01:17:33.853Z,16.32
2023-02-07T01:18:47.491Z,16.33
2023-02-07T01:20:00.262Z,16.32
2023-02-07T01:21:03.979Z,16.29
2023-02-07T01:22:16.743Z,16.28
2023-02-07T01:23:30.522Z,16.29
2023-02-07T01:24:33.350Z,16.26
2023-02-07T01:25:47.041Z,16.28
2023-02-07T01:26:59.778Z,16.29
2023-02-07T01:28:13.680Z,16.26
2023-02-07T01:29:16.626Z,16.28
2023-02-07T01:30:30.212Z,16.26
2023-02-07T01:31:43.138Z,16.25
2023-02-07T01:32:46.997Z,16.23
2023-02-07T01:33:59.760Z,16.26
2023-02-07T01:35:13.536Z,16.25
2023-02-07T01:36:16.340Z,16.26
2023-02-07T01:37:30.021Z,16.25
2023-02-07T01:38:42.808Z,16.26
2023-02-07T01:39:46.545Z,16.23
2023-02-07T01:40:59.320Z,16.23
2023-02-07T01:42:13.000Z,16.23
2023-02-07T01:43:15.812Z,16.25
2023-02-07T01:44:29.513Z,16.19
2023-02-07T01:45:42.330Z,16.22
2023-02-07T01:46:45.995Z,16.19
2023-02-07T01:47:58.751Z,16.22
2023-02-07T01:49:12.528Z,16.19
2023-02-07T01:50:25.237Z,16.2
2023-02-07T01:51:29.027Z,16.2
2023-02-07T01:52:42.038Z,16.18
2023-02-07T01:53:55.508Z,16.18
2023-02-07T01:54:58.358Z,16.18
2023-02-07T01:56:17.639Z,16.16
2023-02-07T01:57:18.785Z,16.16
2023-02-07T01:58:32.517Z,16.16
2023-02-07T01:59:45.356Z,16.16
2023-02-07T02:00:49.027Z,16.15
2023-02-07T02:02:01.869Z,16.16
2023-02-07T02:03:15.501Z,16.18
2023-02-07T02:04:18.314Z,16.13
2023-02-07T02:05:32.005Z,16.15
2023-02-07T02:06:44.797Z,16.13
2023-02-07T02:07:48.516Z,16.13
2023-02-07T02:09:01.293Z,16.13
2023-02-07T02:10:15.022Z,16.13
2023-02-07T02:11:17.857Z,16.15
2023-02-07T02:12:31.506Z,16.09
2023-02-07T02:13:44.364Z,16.1
2023-02-07T02:14:58.004Z,16.09
2023-02-07T02:16:00.850Z,16.1
2023-02-07T02:17:14.543Z,16.1
2023-02-07T02:18:27.330Z,16.08
2023-02-07T02:19:31.025Z,16.06
2023-02-07T02:20:43.819Z,16.09
2023-02-07T02:21:57.527Z,16.06
2023-02-07T02:23:00.359Z,16.08
2023-02-07T02:24:14.010Z,16.03
2023-02-07T02:25:26.799Z,16.05
2023-02-07T02:26:30.520Z,16.05
2023-02-07T02:27:43.588Z,16.05
2023-02-07T02:28:57.024Z,16.06
2023-02-07T02:29:59.843Z,16.03
2023-02-07T02:31:13.594Z,16.02
2023-02-07T02:32:26.463Z,16.03
2023-02-07T02:33:40.023Z,16.06
2023-02-07T02:34:42.926Z,16.03
2023-02-07T02:35:56.562Z,16.01
2023-02-07T02:37:09.398Z,16.02
2023-02-07T02:38:13.051Z,16.03
2023-02-07T02:39:25.891Z,16.02
2023-02-07T02:40:39.537Z,16.03
2023-02-07T02:41:42.424Z,15.99
2023-02-07T02:42:56.019Z,15.99
2023-02-07T02:44:08.846Z,15.99
2023-02-07T02:45:12.538Z,15.99
2023-02-07T02:46:25.413Z,15.99
2023-02-07T02:47:39.056Z,15.98
2023-02-07T02:48:51.924Z,15.99
2023-02-07T02:49:55.552Z,15.96
2023-02-07T02:51:08.347Z,15.96
2023-02-07T02:52:22.050Z,15.98
2023-02-07T02:53:24.937Z,15.95
2023-02-07T02:54:39.046Z,15.96
2023-02-07T02:55:51.896Z,15.96
2023-02-07T02:56:56.576Z,15.95
2023-02-07T02:58:09.426Z,15.95
2023-02-07T02:59:23.529Z,15.96
2023-02-07T03:00:26.410Z,15.95
2023-02-07T03:01:40.089Z,15.96
2023-02-07T03:02:53.029Z,15.94
2023-02-07T03:03:56.537Z,15.92
2023-02-07T03:05:09.370Z,15.92
2023-02-07T03:06:23.107Z,15.95
2023-02-07T03:07:25.980Z,15.92
2023-02-07T03:08:39.573Z,15.91
2023-02-07T03:09:52.414Z,15.92
2023-02-07T03:11:06.061Z,15.92
2023-02-07T03:12:08.951Z,15.92
2023-02-07T03:13:22.553Z,15.91
2023-02-07T03:14:35.416Z,15.91
2023-02-07T03:15:39.196Z,15.89
2023-02-07T03:16:52.226Z,15.91
2023-02-07T03:18:06.096Z,15.86
2023-02-07T03:19:08.967Z,15.89
2023-02-07T03:20:22.651Z,15.91
2023-02-07T03:21:35.466Z,15.88
2023-02-07T03:22:39.076Z,15.88
2023-02-07T03:23:51.888Z,15.88
2023-02-07T03:25:05.567Z,15.89
2023-02-07T03:26:08.448Z,15.88
2023-02-07T03:27:22.057Z,15.88
2023-02-07T03:28:34.890Z,15.88
2023-02-07T03:29:58.573Z,15.86
2023-02-07T03:30:51.521Z,15.88
2023-02-07T03:32:05.052Z,15.86
2023-02-07T03:33:17.884Z,15.89
2023-02-07T03:34:21.590Z,15.86
2023-02-07T03:35:34.427Z,15.89
2023-02-07T03:36:48.082Z,15.85
2023-02-07T03:37:50.926Z,15.85
2023-02-07T03:39:04.549Z,15.88
2023-02-07T03:40:17.394Z,15.88
2023-02-07T03:41:21.075Z,15.85
2023-02-07T03:44:01.307Z,15.85
2023-02-07T03:44:54.204Z,15.84
2023-02-07T03:46:07.897Z,15.84
2023-02-07T03:47:20.762Z,15.86
2023-02-07T03:48:24.390Z,15.85
2023-02-07T03:49:37.208Z,15.85
2023-02-07T03:51:00.869Z,15.86
2023-02-07T03:51:53.784Z,15.82
2023-02-07T03:53:07.405Z,15.82
2023-02-07T03:54:20.269Z,15.84
2023-02-07T03:55:23.883Z,15.86
2023-02-07T03:56:36.720Z,15.84
2023-02-07T03:57:50.383Z,15.82
2023-02-07T03:58:53.247Z,15.81
2023-02-07T04:00:06.883Z,15.81
2023-02-07T04:01:20.013Z,15.82
2023-02-07T04:02:34.397Z,15.81
2023-02-07T04:03:37.263Z,15.81
2023-02-07T04:04:50.889Z,15.84
2023-02-07T04:06:03.767Z,15.81
2023-02-07T04:07:07.516Z,15.78
2023-02-07T04:08:20.363Z,15.79
2023-02-07T04:09:33.882Z,15.82
2023-02-07T04:10:36.819Z,15.79
2023-02-07T04:11:50.394Z,15.78
2023-02-07T04:13:03.229Z,15.81
2023-02-07T04:14:07.361Z,15.77
2023-02-07T04:15:20.262Z,15.79
2023-02-07T04:16:33.925Z,15.77
2023-02-07T04:17:36.810Z,15.77
2023-02-07T04:18:50.432Z,15.78
2023-02-07T04:20:03.287Z,15.77
2023-02-07T04:21:16.919Z,15.75
2023-02-07T04:22:19.811Z,15.77
2023-02-07T04:23:33.366Z,15.78
2023-02-07T04:24:46.228Z,15.78
2023-02-07T04:25:49.906Z,15.75
2023-02-07T04:27:02.836Z,15.77
2023-02-07T04:28:16.480Z,15.74
2023-02-07T04:29:29.569Z,15.74
2023-02-07T04:30:33.499Z,15.74
2023-02-07T04:31:46.509Z,15.75
2023-02-07T04:33:00.387Z,15.78
2023-02-07T04:34:03.291Z,15.75
2023-02-07T04:35:16.879Z,15.74
2023-02-07T04:36:29.728Z,15.74
2023-02-07T04:37:33.397Z,15.74
2023-02-07T04:38:46.261Z,15.74
2023-02-07T04:39:59.894Z,15.74
2023-02-07T04:41:02.771Z,15.74
2023-02-07T04:42:16.391Z,15.74
2023-02-07T04:43:29.260Z,15.72
2023-02-07T04:44:42.875Z,15.72
2023-02-07T04:45:45.821Z,15.72
2023-02-07T04:48:26.840Z,15.71
2023-02-07T04:49:19.770Z,15.75
2023-02-07T04:50:33.505Z,15.74
2023-02-07T04:51:36.386Z,15.74
2023-02-07T04:52:49.908Z,15.75
2023-02-07T04:54:02.764Z,15.77
2023-02-07T04:55:06.389Z,15.75
2023-02-07T04:56:19.247Z,15.79
2023-02-07T04:57:32.922Z,15.77
2023-02-07T04:58:35.810Z,15.78
2023-02-07T04:59:59.400Z,15.78
2023-02-07T05:01:02.311Z,15.79
2023-02-07T05:03:34.387Z,15.79
2023-02-07T05:04:27.281Z,15.79
2023-02-07T05:05:40.972Z,15.81
2023-02-07T05:06:53.815Z,15.79
2023-02-07T05:07:57.488Z,15.81
2023-02-07T05:09:10.348Z,15.82
2023-02-07T05:10:24.009Z,15.81
2023-02-07T05:11:36.817Z,15.78
2023-02-07T05:12:40.437Z,15.79
2023-02-07T05:13:53.289Z,15.78
2023-02-07T05:15:06.990Z,15.78
2023-02-07T05:16:09.846Z,15.75
2023-02-07T05:17:23.457Z,15.75
2023-02-07T05:18:36.306Z,15.77
2023-02-07T05:19:40.001Z,15.75
2023-02-07T05:21:02.807Z,15.74
2023-02-07T05:22:06.480Z,15.75
2023-02-07T05:23:09.323Z,15.77
2023-02-07T05:24:22.988Z,15.74
2023-02-07T05:25:35.995Z,15.75
2023-02-07T05:26:49.955Z,15.74
2023-02-07T05:27:52.878Z,15.72
2023-02-07T05:29:06.452Z,15.71
2023-02-07T05:30:19.381Z,15.72
2023-02-07T05:31:23.543Z,15.72
2023-02-07T05:32:36.536Z,15.72
2023-02-07T05:33:49.988Z,15.71
2023-02-07T05:34:52.886Z,15.72
2023-02-07T05:36:06.484Z,15.71
2023-02-07T05:37:19.320Z,15.74
2023-02-07T05:38:22.977Z,15.71
2023-02-07T05:39:35.837Z,15.75
2023-02-07T05:40:49.509Z,15.71
2023-02-07T05:42:02.368Z,15.71
2023-02-07T05:43:06.011Z,15.72
2023-02-07T05:44:19.027Z,15.71
2023-02-07T05:45:32.477Z,15.68
2023-02-07T05:46:35.348Z,15.72
2023-02-07T05:47:48.985Z,15.7
2023-02-07T05:49:01.814Z,15.72
2023-02-07T05:50:05.493Z,15.71
2023-02-07T05:51:18.345Z,15.78
2023-02-07T05:52:33.527Z,15.84
2023-02-07T05:53:38.313Z,15.98
2023-02-07T05:54:51.953Z,16.08
2023-02-07T05:56:04.660Z,16.2
2023-02-07T05:57:07.944Z,16.33
2023-02-07T05:58:20.622Z,16.46
2023-02-07T05:59:33.992Z,16.6
2023-02-07T06:00:36.699Z,16.69
2023-02-07T06:01:49.984Z,16.8
2023-02-07T06:03:02.604Z,16.88
2023-02-07T06:04:15.975Z,16.98
2023-02-07T06:05:18.611Z,17.05
2023-02-07T06:06:32.456Z,17.15
2023-02-07T06:07:45.048Z,17.24
2023-02-07T06:08:48.565Z,17.34
2023-02-07T06:10:01.120Z,17.41
2023-02-07T06:11:14.480Z,17.43
2023-02-07T06:12:17.082Z,17.54
2023-02-07T06:13:30.484Z,17.56
2023-02-07T06:14:42.989Z,17.61
2023-02-07T06:15:56.743Z,17.66
2023-02-07T06:16:59.474Z,17.63
2023-02-07T06:18:12.955Z,17.65
2023-02-07T06:19:25.489Z,17.65
2023-02-07T06:20:28.945Z,17.59
2023-02-07T06:21:46.414Z,17.51
2023-02-07T06:22:50.017Z,17.46
2023-02-07T06:24:02.382Z,17.42
2023-02-07T06:25:15.487Z,17.35
2023-02-07T06:26:27.896Z,17.29
2023-02-07T06:27:31.080Z,17.28
2023-02-07T06:28:43.439Z,17.24
2023-02-07T06:29:56.452Z,17.2
2023-02-07T06:31:09.089Z,17.2
2023-02-07T06:32:12.953Z,17.2
2023-02-07T06:33:25.557Z,17.15
2023-02-07T06:34:39.007Z,17.17
2023-02-07T06:35:41.663Z,17.18
2023-02-07T06:36:54.990Z,17.2
2023-02-07T06:38:07.519Z,17.22
2023-02-07T06:39:20.989Z,17.25
2023-02-07T06:40:23.614Z,17.25
2023-02-07T06:41:37.012Z,17.27
2023-02-07T06:42:49.560Z,17.31
2023-02-07T06:43:53.003Z,17.34
2023-02-07T06:45:05.605Z,17.36
2023-02-07T06:46:19.114Z,17.38
2023-02-07T06:47:21.816Z,17.43
2023-02-07T06:48:34.972Z,17.45
2023-02-07T06:49:47.510Z,17.49
2023-02-07T06:51:01.277Z,17.52
2023-02-07T06:52:03.888Z,17.55
2023-02-07T06:53:17.475Z,17.55
2023-02-07T06:54:30.011Z,17.58
2023-02-07T06:55:33.472Z,17.61
2023-02-07T06:56:46.040Z,17.63
2023-02-07T06:57:59.471Z,17.66
2023-02-07T06:59:02.050Z,17.68
2023-02-07T07:00:15.478Z,17.69
2023-02-07T07:01:28.090Z,17.72
2023-02-07T07:02:41.480Z,17.75
2023-02-07T07:03:44.187Z,17.76
2023-02-07T07:04:57.510Z,17.79
2023-02-07T07:06:10.022Z,17.82
2023-02-07T07:07:13.514Z,17.83
2023-02-07T07:08:26.032Z,17.83
2023-02-07T07:09:39.502Z,17.87
2023-02-07T07:10:52.013Z,17.87
2023-02-07T07:11:55.484Z,17.89
2023-02-07T07:13:08.008Z,17.9
2023-02-07T07:14:21.489Z,17.92
2023-02-07T07:15:24.090Z,17.94
2023-02-07T07:16:37.493Z,17.94
2023-02-07T07:17:49.991Z,17.93
2023-02-07T07:19:03.499Z,17.99
2023-02-07T07:20:06.073Z,18.0
2023-02-07T07:21:19.511Z,18.02
2023-02-07T07:22:31.991Z,18.02
2023-02-07T07:23:35.514Z,18.02
2023-02-07T07:24:48.064Z,18.06
2023-02-07T07:26:01.506Z,18.07
2023-02-07T07:27:04.047Z,18.07
2023-02-07T07:28:17.570Z,18.09
2023-02-07T07:29:30.126Z,18.09
2023-02-07T07:30:43.556Z,18.12
2023-02-07T07:31:46.251Z,18.12
2023-02-07T07:32:59.524Z,18.14
2023-02-07T07:34:11.999Z,18.13
2023-02-07T07:35:15.853Z,18.16
2023-02-07T07:36:29.355Z,18.2
2023-02-07T07:37:42.515Z,18.19
2023-02-07T07:38:47.558Z,18.22
2023-02-07T07:40:01.506Z,18.22
2023-02-07T07:41:04.149Z,18.23
2023-02-07T07:42:17.519Z,18.23
2023-02-07T07:43:29.990Z,18.26
2023-02-07T07:44:43.478Z,18.26
2023-02-07T07:45:46.048Z,18.26
2023-02-07T07:46:59.511Z,18.27
2023-02-07T07:48:11.989Z,18.27
2023-02-07T07:49:15.518Z,18.29
2023-02-07T07:50:28.049Z,18.3
2023-02-07T07:52:00.995Z,18.31
2023-02-07T07:52:53.642Z,18.31
2023-02-07T07:53:56.201Z,18.33
2023-02-07T07:55:09.508Z,18.34
2023-02-07T07:56:21.925Z,18.36
2023-02-07T07:57:25.504Z,18.38
2023-02-07T07:58:37.955Z,18.4
2023-02-07T07:59:51.007Z,18.41
2023-02-07T08:01:03.460Z,18.44
2023-02-07T08:02:07.003Z,18.45
2023-02-07T08:03:19.462Z,18.48
2023-02-07T08:04:32.502Z,18.5
2023-02-07T08:05:35.037Z,18.53
2023-02-07T08:06:48.494Z,18.54
2023-02-07T08:08:00.963Z,18.55
2023-02-07T08:09:14.027Z,18.57
2023-02-07T08:10:16.560Z,18.58
2023-02-07T08:11:30.010Z,18.61
2023-02-07T08:12:44.108Z,18.6
2023-02-07T08:13:47.505Z,18.64
2023-02-07T08:15:00.092Z,18.62
2023-02-07T08:16:13.564Z,18.65
2023-02-07T08:17:35.979Z,18.68
2023-02-07T08:18:29.494Z,18.68
2023-02-07T08:19:41.916Z,18.71
2023-02-07T08:20:45.021Z,18.74
2023-02-07T08:21:57.486Z,18.74
2023-02-07T08:23:10.521Z,18.78
2023-02-07T08:24:22.968Z,18.77
2023-02-07T08:25:26.525Z,18.81
2023-02-07T08:26:38.952Z,18.82
2023-02-07T08:27:52.056Z,18.85
2023-02-07T08:28:54.657Z,18.91
2023-02-07T08:30:08.021Z,18.88
2023-02-07T08:31:20.533Z,18.94
2023-02-07T08:32:34.026Z,18.95
2023-02-07T08:33:36.546Z,18.96
2023-02-07T08:34:50.066Z,18.96
2023-02-07T08:36:02.474Z,18.99
2023-02-07T08:37:06.013Z,19.02
2023-02-07T08:38:18.409Z,19.02
2023-02-07T08:39:31.498Z,19.08
2023-02-07T08:40:34.002Z,19.11
2023-02-07T08:41:47.042Z,19.11
2023-02-07T08:42:59.447Z,19.12
2023-02-07T08:44:12.528Z,19.15
2023-02-07T08:45:15.010Z,19.16
2023-02-07T08:46:39.017Z,19.19
2023-02-07T08:47:41.456Z,19.22
2023-02-07T08:48:45.003Z,19.27
2023-02-07T08:49:57.357Z,19.29
2023-02-07T08:51:10.534Z,19.32
2023-02-07T08:52:22.890Z,19.36
2023-02-07T08:53:26.008Z,19.39
2023-02-07T08:54:38.350Z,19.43
2023-02-07T08:55:51.498Z,19.45
2023-02-07T08:56:53.942Z,19.49
2023-02-07T08:58:07.046Z,19.5
2023-02-07T08:59:19.381Z,19.55
2023-02-07T09:00:32.539Z,19.57
2023-02-07T09:01:35.073Z,19.62
2023-02-07T09:02:48.068Z,19.63
2023-02-07T09:04:00.519Z,19.68
2023-02-07T09:05:13.529Z,19.7
2023-02-07T09:06:15.989Z,19.77
2023-02-07T09:07:29.537Z,19.78
2023-02-07T09:08:41.857Z,19.81
2023-02-07T09:09:45.532Z,19.83
2023-02-07T09:10:57.924Z,19.9
2023-02-07T09:12:11.551Z,19.93
2023-02-07T09:13:14.007Z,19.97
2023-02-07T09:14:27.013Z,20.03
2023-02-07T09:15:39.329Z,20.06
2023-02-07T09:16:52.559Z,20.07
2023-02-07T09:17:55.076Z,20.11
2023-02-07T09:19:08.014Z,20.17
2023-02-07T09:20:20.308Z,20.21
2023-02-07T09:21:23.565Z,20.27
2023-02-07T09:22:35.900Z,20.28
2023-02-07T09:23:49.035Z,20.35
2023-02-07T09:25:01.316Z,20.35
2023-02-07T09:26:04.544Z,20.39
2023-02-07T09:27:16.796Z,20.44
2023-02-07T09:28:41.055Z,20.46
2023-02-07T09:29:33.518Z,20.46
2023-02-07T09:30:46.714Z,20.54
2023-02-07T09:31:59.352Z,20.58
2023-02-07T09:33:02.584Z,20.62
2023-02-07T09:34:14.951Z,20.65
2023-02-07T09:35:28.208Z,20.7
2023-02-07T09:36:40.554Z,20.72
2023-02-07T09:37:49.606Z,20.79
2023-02-07T09:38:52.585Z,20.79
2023-02-07T09:40:05.529Z,20.83
2023-02-07T09:41:17.836Z,20.89
2023-02-07T09:42:41.065Z,20.93
2023-02-07T09:43:38.015Z,20.96
2023-02-07T09:44:41.174Z,20.99
2023-02-07T09:45:53.567Z,21.01
2023-02-07T09:47:07.041Z,21.07
2023-02-07T09:48:19.337Z,21.09
2023-02-07T09:49:22.550Z,21.16
2023-02-07T09:50:34.820Z,21.17
2023-02-07T09:51:48.062Z,21.21
2023-02-07T09:52:50.380Z,21.26
2023-02-07T09:54:03.566Z,21.27
2023-02-07T09:55:15.778Z,21.29
2023-02-07T09:56:29.040Z,21.33
2023-02-07T09:57:31.368Z,21.37
2023-02-07T09:58:44.557Z,21.39
2023-02-07T09:59:56.806Z,21.39
2023-02-07T10:01:00.091Z,21.46
2023-02-07T10:02:12.501Z,21.48
2023-02-07T10:03:25.581Z,21.51
2023-02-07T10:04:37.848Z,21.53
2023-02-07T10:05:41.097Z,21.57
2023-02-07T10:06:53.302Z,21.6
2023-02-07T10:08:06.539Z,21.58
2023-02-07T10:09:08.827Z,21.6
2023-02-07T10:10:22.067Z,21.67
2023-02-07T10:11:34.351Z,21.67
2023-02-07T10:12:47.563Z,21.68
2023-02-07T10:13:49.927Z,21.71
2023-02-07T10:15:03.040Z,21.74
2023-02-07T10:16:15.262Z,21.77
2023-02-07T10:17:32.005Z,21.8
2023-02-07T10:18:34.566Z,21.81
2023-02-07T10:19:47.531Z,21.85
2023-02-07T10:20:49.791Z,21.87
2023-02-07T10:22:02.665Z,21.91
2023-02-07T10:23:14.902Z,21.94
2023-02-07T10:24:28.028Z,21.94
2023-02-07T10:25:30.985Z,21.99
2023-02-07T10:26:45.044Z,22.01
2023-02-07T10:27:47.429Z,22.06
2023-02-07T10:29:00.592Z,22.05
2023-02-07T10:30:12.809Z,22.09
2023-02-07T10:31:25.639Z,22.11
2023-02-07T10:32:28.111Z,22.13
2023-02-07T10:33:41.070Z,22.18
2023-02-07T10:34:53.257Z,22.22
2023-02-07T10:36:06.038Z,22.26
2023-02-07T10:37:08.708Z,22.3
2023-02-07T10:38:21.621Z,22.32
2023-02-07T10:39:33.712Z,22.36
2023-02-07T10:40:46.576Z,22.41
2023-02-07T10:41:48.856Z,22.45
2023-02-07T10:43:02.100Z,22.46
2023-02-07T10:44:14.315Z,22.49
2023-02-07T10:45:17.542Z,22.52
2023-02-07T10:46:29.685Z,22.54
2023-02-07T10:47:42.580Z,22.56
2023-02-07T10:48:54.728Z,22.6
2023-02-07T10:49:57.550Z,22.6
2023-02-07T10:51:09.698Z,22.66
2023-02-07T10:52:22.576Z,22.66
2023-02-07T10:53:24.899Z,22.69
2023-02-07T10:54:38.052Z,22.73
2023-02-07T10:55:50.184Z,22.74
2023-02-07T10:57:03.286Z,22.77
2023-02-07T10:58:17.740Z,22.79
2023-02-07T10:59:15.586Z,22.84
2023-02-07T11:00:27.749Z,22.86
2023-02-07T11:01:40.563Z,22.87
2023-02-07T11:02:43.090Z,22.93
2023-02-07T11:03:56.042Z,22.93
2023-02-07T11:05:08.113Z,22.96
2023-02-07T11:06:21.060Z,22.96
2023-02-07T11:07:23.339Z,22.96
2023-02-07T11:08:36.078Z,23.0
2023-02-07T11:09:48.195Z,23.01
2023-02-07T11:11:01.070Z,23.03
2023-02-07T11:12:03.338Z,23.04
2023-02-07T11:13:16.552Z,23.05
2023-02-07T11:14:28.668Z,23.08
2023-02-07T11:15:31.579Z,23.1
2023-02-07T11:16:43.647Z,23.1
2023-02-07T11:17:56.726Z,23.11
2023-02-07T11:19:09.092Z,23.14
2023-02-07T11:20:12.060Z,23.14
2023-02-07T11:21:24.180Z,23.15
2023-02-07T11:22:37.050Z,23.17
2023-02-07T11:23:49.163Z,23.2
2023-02-07T11:24:52.068Z,23.21
2023-02-07T11:26:04.231Z,23.21
2023-02-07T11:27:17.047Z,23.25
2023-02-07T11:28:19.250Z,23.23
2023-02-07T11:29:32.213Z,23.28
2023-02-07T11:30:44.325Z,23.28
2023-02-07T11:31:57.101Z,23.31
2023-02-07T11:32:59.291Z,23.37
2023-02-07T11:34:12.057Z,23.37
2023-02-07T11:35:24.160Z,23.37
2023-02-07T11:36:37.065Z,23.39
2023-02-07T11:37:39.227Z,23.41
2023-02-07T11:38:52.570Z,23.42
2023-02-07T11:40:04.646Z,23.44
2023-02-07T11:41:07.547Z,23.47
2023-02-07T11:42:19.647Z,23.44
2023-02-07T11:43:32.596Z,23.48
2023-02-07T11:44:44.677Z,23.49
2023-02-07T11:45:47.586Z,23.51
2023-02-07T11:46:59.680Z,23.49
2023-02-07T11:48:12.574Z,23.52
2023-02-07T11:49:24.560Z,23.55
2023-02-07T11:50:47.090Z,23.56
2023-02-07T11:51:39.454Z,23.58
2023-02-07T11:52:52.131Z,23.58
2023-02-07T11:54:04.216Z,23.64
2023-02-07T11:55:07.059Z,23.65
2023-02-07T11:56:19.127Z,23.66
2023-02-07T11:57:32.096Z,23.68
2023-02-07T11:58:34.249Z,23.69
2023-02-07T11:59:47.155Z,23.72
2023-02-07T12:00:59.223Z,23.71
2023-02-07T12:02:12.101Z,23.75
2023-02-07T12:03:14.417Z,23.76
2023-02-07T12:04:27.078Z,23.76
2023-02-07T12:05:39.520Z,23.78
2023-02-07T12:06:52.581Z,23.78
2023-02-07T12:07:54.891Z,23.82
2023-02-07T12:09:07.804Z,23.85
2023-02-07T12:10:20.403Z,23.85
2023-02-07T12:11:27.386Z,23.88
2023-02-07T12:12:39.464Z,23.88
2023-02-07T12:13:52.268Z,23.9
2023-02-07T12:14:54.448Z,23.88
2023-02-07T12:16:07.126Z,23.93
2023-02-07T12:17:19.365Z,23.93
2023-02-07T12:18:22.149Z,23.93
2023-02-07T12:19:34.201Z,23.96
2023-02-07T12:20:47.105Z,23.98
2023-02-07T12:21:59.186Z,23.99
2023-02-07T12:23:16.350Z,24.02
2023-02-07T12:24:10.624Z,24.0
2023-02-07T12:25:22.770Z,24.03
2023-02-07T12:26:35.598Z,24.03
2023-02-07T12:27:47.668Z,24.05
2023-02-07T12:28:52.081Z,24.07
2023-02-07T12:30:06.894Z,24.05
2023-02-07T12:31:19.826Z,24.06
2023-02-07T12:32:22.173Z,24.05
2023-02-07T12:33:35.166Z,24.1
2023-02-07T12:34:47.273Z,24.13
2023-02-07T12:35:56.995Z,24.11
2023-02-07T12:36:59.875Z,24.13
2023-02-07T12:38:12.601Z,24.11
2023-02-07T12:39:24.637Z,24.16
2023-02-07T12:40:37.606Z,24.11
2023-02-07T12:41:39.763Z,24.14
2023-02-07T12:43:02.836Z,24.11
2023-02-07T12:44:06.467Z,24.2
2023-02-07T12:45:10.118Z,24.19
2023-02-07T12:46:22.113Z,24.2
2023-02-07T12:47:35.105Z,24.19
2023-02-07T12:48:37.256Z,24.23
2023-02-07T12:49:50.122Z,24.25
2023-02-07T12:51:02.151Z,24.25
2023-02-07T12:52:15.115Z,24.25
2023-02-07T12:53:17.286Z,24.26
2023-02-07T12:54:30.638Z,24.25
2023-02-07T12:55:42.686Z,24.27
2023-02-07T12:56:45.615Z,24.27
2023-02-07T12:57:57.637Z,24.27
2023-02-07T12:59:10.608Z,24.3
2023-02-07T13:00:22.533Z,24.29
2023-02-07T13:01:25.645Z,24.3
2023-02-07T13:02:37.661Z,24.3
2023-02-07T13:03:50.629Z,24.3
2023-02-07T13:04:52.776Z,24.32
2023-02-07T13:06:05.609Z,24.33
2023-02-07T13:07:17.613Z,24.34
2023-02-07T13:08:30.601Z,24.36
2023-02-07T13:09:32.692Z,24.4
2023-02-07T13:10:45.595Z,24.39
2023-02-07T13:11:57.589Z,24.4
2023-02-07T13:13:10.577Z,24.39
2023-02-07T13:14:12.652Z,24.4
2023-02-07T13:15:25.619Z,24.43
2023-02-07T13:16:37.743Z,24.41
2023-02-07T13:17:40.595Z,24.43
2023-02-07T13:18:52.573Z,24.44
2023-02-07T13:20:05.157Z,24.44
2023-02-07T13:21:17.543Z,24.44
2023-02-07T13:22:20.614Z,24.44
2023-02-07T13:23:32.603Z,24.41
2023-02-07T13:24:45.122Z,24.46
2023-02-07T13:25:47.301Z,24.43
2023-02-07T13:27:00.141Z,24.43
2023-02-07T13:28:12.129Z,24.43
2023-02-07T13:29:25.107Z,24.43
2023-02-07T13:30:27.295Z,24.43
2023-02-07T13:31:40.194Z,24.4
2023-02-07T13:32:52.197Z,24.41
2023-02-07T13:33:55.163Z,24.39
2023-02-07T13:35:07.187Z,24.39
2023-02-07T13:36:20.118Z,24.37
2023-02-07T13:37:32.147Z,24.37
2023-02-07T13:38:35.134Z,24.37
2023-02-07T13:39:47.158Z,24.37
2023-02-07T13:41:00.134Z,24.36
2023-02-07T13:42:02.309Z,24.36
2023-02-07T13:43:15.115Z,24.36
2023-02-07T13:44:27.139Z,24.34
2023-02-07T13:45:40.442Z,24.34
2023-02-07T13:46:42.836Z,24.33
2023-02-07T13:47:55.664Z,24.34
2023-02-07T13:49:07.602Z,24.33
2023-02-07T13:50:20.613Z,24.32
2023-02-07T13:51:22.819Z,24.33
2023-02-07T13:52:35.661Z,24.33
2023-02-07T13:53:47.828Z,24.32
2023-02-07T13:54:50.611Z,24.33
2023-02-07T13:56:02.627Z,24.32
2023-02-07T13:57:15.638Z,24.33
2023-02-07T13:58:27.576Z,24.34
2023-02-07T13:59:30.660Z,24.32
2023-02-07T14:00:42.675Z,24.32
2023-02-07T14:01:55.626Z,24.34
2023-02-07T14:02:57.746Z,24.34
2023-02-07T14:04:10.624Z,24.36
2023-02-07T14:05:22.630Z,24.34
2023-02-07T14:06:35.127Z,24.33
2023-02-07T14:07:37.231Z,24.33
2023-02-07T14:08:50.150Z,24.3
2023-02-07T14:10:02.086Z,24.33
2023-02-07T14:11:15.151Z,24.32
2023-02-07T14:12:17.294Z,24.33
2023-02-07T14:13:30.157Z,24.33
2023-02-07T14:14:46.424Z,24.3
2023-02-07T14:15:44.152Z,24.33
2023-02-07T14:16:56.277Z,24.33
2023-02-07T14:18:09.136Z,24.34
2023-02-07T14:19:21.081Z,24.32
2023-02-07T14:20:24.132Z,24.32
2023-02-07T14:21:36.146Z,24.34
2023-02-07T14:22:49.154Z,24.34
2023-02-07T14:24:01.175Z,24.34
2023-02-07T14:25:04.122Z,24.34
2023-02-07T14:26:16.128Z,24.36
2023-02-07T14:27:29.157Z,24.37
2023-02-07T14:28:31.344Z,24.37
2023-02-07T14:29:44.106Z,24.39
2023-02-07T14:30:56.177Z,24.37
2023-02-07T14:32:09.118Z,24.41
2023-02-07T14:33:11.278Z,24.41
2023-02-07T14:34:24.150Z,24.41
2023-02-07T14:35:36.174Z,24.41
2023-02-07T14:36:39.152Z,24.44
2023-02-07T14:37:51.059Z,24.4
2023-02-07T14:39:03.630Z,24.43
2023-02-07T14:40:15.589Z,24.41
2023-02-07T14:41:18.619Z,24.4
2023-02-07T14:42:30.635Z,24.43
2023-02-07T14:43:43.665Z,24.39
2023-02-07T14:46:12.173Z,24.41
2023-02-07T14:47:14.469Z,24.4
2023-02-07T14:48:17.317Z,24.43
2023-02-07T14:49:29.251Z,24.41
2023-02-07T14:50:42.337Z,24.41
2023-02-07T14:51:44.563Z,24.39
2023-02-07T14:52:57.269Z,24.4
2023-02-07T14:54:09.286Z,24.41
2023-02-07T14:55:22.260Z,24.41
2023-02-07T14:56:24.337Z,24.39
2023-02-07T14:57:37.291Z,24.39
2023-02-07T14:58:49.289Z,24.39
2023-02-07T14:59:52.278Z,24.34
2023-02-07T15:01:04.296Z,24.36
2023-02-07T15:02:17.355Z,24.36
2023-02-07T15:03:19.623Z,24.34
2023-02-07T15:04:32.287Z,24.36
2023-02-07T15:05:44.281Z,24.36
2023-02-07T15:06:57.267Z,24.34
2023-02-07T15:07:59.403Z,24.34
2023-02-07T15:09:12.297Z,24.36